Time;durP1;ratioP1;P1;durP2;ratioP2;P2;SDS_P1;SDS_P2;PMS_P1;PMS_P2;Temp;Humidity;BMP_temperature;BMP_pressure;BME280_temperature;BME280_humidity;BME280_pressure;Samples;Min_cycle;Max_cycle;Signal;HPM_P1;HPM_P2
2022/12/08 00:01:12;;;;;;;3.28;1.40;;;;;10.70;100883.00;;;;5026969;28;20200;-74
2022/12/08 00:03:39;;;;;;;1.17;1.08;;;;;10.70;100882.00;;;;5021237;28;20197;-74
2022/12/08 00:11:43;;;;;;;2.63;1.50;;;;;10.70;100865.00;;;;5009337;28;20251;-74
2022/12/08 00:14:11;;;;;;;2.60;0.88;;;;;10.70;100856.00;;;;5022755;28;20193;-73
2022/12/08 00:16:38;;;;;;;5.68;1.38;;;;;10.70;100853.00;;;;5008133;28;20201;-73
2022/12/08 00:19:05;;;;;;;1.63;1.20;;;;;10.70;100844.00;;;;5017615;28;20211;-73
2022/12/08 00:21:33;;;;;;;1.27;1.15;;;;;10.70;100846.00;;;;5009471;28;20193;-73
2022/12/08 00:24:01;;;;;;;1.40;1.27;;;;;10.70;100838.00;;;;5008967;28;20211;-73
2022/12/08 00:26:29;;;;;;;2.75;1.20;;;;;10.70;100833.00;;;;5008761;28;20201;-73
2022/12/08 00:28:56;;;;;;;1.60;1.33;;;;;10.70;100833.00;;;;5027113;28;20193;-73
2022/12/08 00:31:23;;;;;;;2.90;1.60;;;;;10.70;100832.00;;;;5028548;28;20226;-73
2022/12/08 00:33:50;;;;;;;2.60;1.40;;;;;10.70;100825.00;;;;5021026;28;20223;-73
2022/12/08 00:36:18;;;;;;;3.08;1.02;;;;;10.70;100826.00;;;;5009197;28;20221;-73
2022/12/08 00:38:47;;;;;;;2.25;1.15;;;;;10.70;100825.00;;;;5010805;28;20211;-73
2022/12/08 00:41:17;;;;;;;1.35;1.25;;;;;10.70;100823.00;;;;5017823;28;20251;-74
2022/12/08 00:43:45;;;;;;;1.92;1.08;;;;;10.70;100824.00;;;;5013647;28;20320;-73
2022/12/08 00:46:12;;;;;;;2.95;1.50;;;;;10.70;100816.00;;;;5025242;28;20192;-74
2022/12/08 00:48:39;;;;;;;1.27;1.15;;;;;10.70;100809.00;;;;5008887;28;20207;-74
2022/12/08 00:51:07;;;;;;;2.17;1.20;;;;;10.70;100808.00;;;;5009888;28;20224;-73
2022/12/08 00:53:34;;;;;;;2.53;1.30;;;;;10.70;100812.00;;;;5013650;28;20201;-74
2022/12/08 00:56:01;;;;;;;1.33;1.23;;;;;10.70;100803.00;;;;5027761;28;20196;-74
2022/12/08 00:58:30;;;;;;;2.10;1.90;;;;;10.70;100790.00;;;;5007852;28;20198;-74
2022/12/08 01:00:57;;;;;;;2.55;1.48;;;;;10.70;100794.00;;;;5015911;28;20212;-74
2022/12/08 01:03:25;;;;;;;1.70;1.50;;;;;10.70;100792.00;;;;5026563;28;20201;-74
2022/12/08 01:05:52;;;;;;;1.52;1.35;;;;;10.70;100783.00;;;;5026567;28;20273;-74
2022/12/08 01:08:19;;;;;;;1.23;1.13;;;;;10.70;100781.00;;;;5022138;28;20216;-74
2022/12/08 01:10:47;;;;;;;2.70;1.70;;;;;10.70;100776.00;;;;5013124;28;20207;-74
2022/12/08 01:13:14;;;;;;;1.13;1.02;;;;;10.60;100779.00;;;;5025669;28;20220;-74
2022/12/08 01:15:43;;;;;;;1.80;1.30;;;;;10.60;100784.00;;;;5027809;28;20200;-74
2022/12/08 01:18:10;;;;;;;2.42;1.52;;;;;10.60;100773.00;;;;5023487;28;20204;-74
2022/12/08 01:20:37;;;;;;;1.38;1.27;;;;;10.60;100773.00;;;;5011822;28;20193;-74
2022/12/08 01:23:04;;;;;;;1.50;1.40;;;;;10.60;100765.00;;;;5007208;28;20212;-74
2022/12/08 01:25:34;;;;;;;1.60;1.38;;;;;10.60;100776.00;;;;5012970;28;20209;-74
2022/12/08 01:28:02;;;;;;;1.50;1.23;;;;;10.60;100782.00;;;;5007833;28;20192;-74
2022/12/08 01:30:29;;;;;;;1.73;1.35;;;;;10.60;100783.00;;;;5008163;28;20193;-74
2022/12/08 01:32:58;;;;;;;3.83;1.40;;;;;10.60;100790.00;;;;5009151;28;20215;-74
2022/12/08 01:35:25;;;;;;;1.45;1.35;;;;;10.60;100796.00;;;;5016535;28;20250;-74
2022/12/08 01:37:52;;;;;;;1.40;1.30;;;;;10.60;100792.00;;;;5027631;28;20196;-74
2022/12/08 01:40:19;;;;;;;1.50;1.08;;;;;10.60;100790.00;;;;5025915;28;20197;-75
2022/12/08 01:42:47;;;;;;;1.75;1.48;;;;;10.60;100788.00;;;;5017648;28;20216;-74
2022/12/08 01:45:17;;;;;;;1.52;1.25;;;;;10.60;100794.00;;;;5010889;28;20200;-75
2022/12/08 01:47:49;;;;;;;2.28;1.10;;;;;10.60;100790.00;;;;5022462;28;20208;-75
2022/12/08 01:50:19;;;;;;;1.70;1.38;;;;;10.60;100784.00;;;;5028459;28;20208;-75
2022/12/08 01:52:50;;;;;;;1.10;1.00;;;;;10.60;100777.00;;;;5018023;28;20236;-75
2022/12/08 01:55:19;;;;;;;1.30;1.20;;;;;10.60;100765.00;;;;5010378;28;21041;-75
2022/12/08 01:57:49;;;;;;;1.63;1.52;;;;;10.60;100762.00;;;;5006824;28;20620;-75
2022/12/08 02:00:19;;;;;;;1.98;1.77;;;;;10.60;100771.00;;;;5007403;28;20204;-75
2022/12/08 02:02:55;;;;;;;1.80;1.63;;;;;10.50;100767.00;;;;5006958;28;20197;-75
2022/12/08 02:05:26;;;;;;;2.08;1.73;;;;;10.60;100759.00;;;;5009415;28;20204;-75
2022/12/08 02:07:55;;;;;;;2.10;1.85;;;;;10.60;100772.00;;;;5015127;28;20203;-75
2022/12/08 02:10:27;;;;;;;1.80;1.70;;;;;10.60;100761.00;;;;5008087;28;20193;-75
2022/12/08 02:12:57;;;;;;;2.53;2.03;;;;;10.60;100763.00;;;;5021016;28;20223;-75
2022/12/08 02:15:32;;;;;;;2.15;1.95;;;;;10.60;100765.00;;;;5026548;28;20204;-75
2022/12/08 02:18:19;;;;;;;2.72;2.30;;;;;10.60;100757.00;;;;5012650;28;20670;-75
2022/12/08 02:20:56;;;;;;;4.40;2.03;;;;;10.60;100758.00;;;;5030194;28;20200;-75
2022/12/08 02:23:33;;;;;;;2.63;1.98;;;;;10.60;100750.00;;;;5015666;28;20964;-75
2022/12/08 02:26:18;;;;;;;2.70;1.88;;;;;10.60;100740.00;;;;5014023;28;20208;-75
2022/12/08 02:29:05;;;;;;;1.83;1.70;;;;;10.60;100733.00;;;;5026798;28;20205;-75
2022/12/08 02:31:48;;;;;;;2.05;1.70;;;;;10.60;100726.00;;;;5016993;28;20816;-75
2022/12/08 02:34:22;;;;;;;1.98;1.77;;;;;10.60;100731.00;;;;5010882;28;20212;-75
2022/12/08 02:36:56;;;;;;;2.08;1.70;;;;;10.60;100728.00;;;;5011676;28;20228;-75
2022/12/08 02:39:29;;;;;;;2.60;1.90;;;;;10.60;100736.00;;;;5010852;28;21164;-75
2022/12/08 02:42:04;;;;;;;1.52;1.20;;;;;10.60;100737.00;;;;5011448;28;20224;-75
2022/12/08 02:44:43;;;;;;;2.35;1.35;;;;;10.60;100735.00;;;;5014069;28;20216;-75
2022/12/08 02:47:14;;;;;;;2.28;1.08;;;;;10.70;100739.00;;;;5013476;28;20201;-75
2022/12/08 02:49:43;;;;;;;2.67;1.15;;;;;10.70;100730.00;;;;5009521;28;20207;-75
2022/12/08 02:52:41;;;;;;;2.13;1.15;;;;;10.60;100721.00;;;;5008973;28;20217;-75
2022/12/08 02:55:24;;;;;;;1.45;1.15;;;;;10.70;100713.00;;;;5008654;28;20196;-75
2022/12/08 02:58:29;;;;;;;1.67;1.08;;;;;10.60;100703.00;;;;5013578;28;20215;-75
2022/12/08 03:01:12;;;;;;;1.23;0.90;;;;;10.60;100704.00;;;;5014611;28;20207;-75
2022/12/08 03:03:50;;;;;;;1.20;0.60;;;;;10.70;100697.00;;;;5025361;28;20211;-75
2022/12/08 03:06:28;;;;;;;1.15;0.77;;;;;10.70;100698.00;;;;5009742;28;20224;-75
2022/12/08 03:08:59;;;;;;;2.88;0.80;;;;;10.70;100690.00;;;;5014361;28;20205;-75
2022/12/08 03:11:34;;;;;;;1.67;0.80;;;;;10.70;100683.00;;;;5013719;28;20203;-75
2022/12/08 03:14:05;;;;;;;1.23;0.77;;;;;10.70;100686.00;;;;5027882;28;20203;-75
2022/12/08 03:16:36;;;;;;;0.95;0.68;;;;;10.80;100686.00;;;;5009433;28;20205;-75
2022/12/08 03:19:10;;;;;;;0.90;0.45;;;;;10.70;100672.00;;;;5011850;28;20692;-75
2022/12/08 03:21:41;;;;;;;1.48;0.63;;;;;10.70;100672.00;;;;5019127;28;20196;-75
2022/12/08 03:24:10;;;;;;;1.50;0.40;;;;;10.70;100671.00;;;;5023620;28;20196;-75
2022/12/08 03:26:45;;;;;;;1.55;0.50;;;;;10.70;100674.00;;;;5014324;28;20240;-75
2022/12/08 03:29:13;;;;;;;1.15;0.50;;;;;10.80;100668.00;;;;5017948;28;20197;-75
2022/12/08 03:31:46;;;;;;;0.75;0.55;;;;;10.80;100667.00;;;;5020330;28;20669;-75
2022/12/08 03:34:15;;;;;;;0.47;0.20;;;;;10.80;100671.00;;;;5010023;28;20208;-75
2022/12/08 03:36:44;;;;;;;1.00;0.35;;;;;10.80;100687.00;;;;5013073;28;20709;-75
2022/12/08 03:39:11;;;;;;;0.40;0.10;;;;;10.80;100685.00;;;;5027154;28;21215;-75
2022/12/08 03:41:39;;;;;;;0.30;0.10;;;;;10.80;100683.00;;;;5024476;28;20197;-75
2022/12/08 03:44:06;;;;;;;2.42;0.25;;;;;10.80;100681.00;;;;5024511;28;20204;-76
2022/12/08 03:46:34;;;;;;;0.30;0.20;;;;;10.80;100682.00;;;;5014389;28;20193;-76
2022/12/08 03:49:01;;;;;;;0.95;0.22;;;;;10.80;100682.00;;;;5014765;28;20220;-75
2022/12/08 03:51:28;;;;;;;0.32;0.10;;;;;10.80;100667.00;;;;5019385;28;20208;-76
2022/12/08 03:53:57;;;;;;;0.98;0.15;;;;;10.70;100657.00;;;;5019809;28;20243;-76
2022/12/08 03:56:26;;;;;;;1.00;0.20;;;;;10.70;100655.00;;;;5020879;28;20225;-75
2022/12/08 03:58:54;;;;;;;0.82;0.28;;;;;10.70;100653.00;;;;5015702;28;20667;-75
2022/12/08 04:01:23;;;;;;;0.13;0.13;;;;;10.80;100654.00;;;;5008867;28;20200;-76
2022/12/08 04:03:51;;;;;;;0.65;0.28;;;;;10.80;100657.00;;;;5009086;28;20965;-76
2022/12/08 04:06:19;;;;;;;0.70;0.38;;;;;10.80;100658.00;;;;5027409;28;20604;-75
2022/12/08 04:08:47;;;;;;;0.98;0.40;;;;;10.80;100655.00;;;;5028767;28;20193;-76
2022/12/08 04:11:15;;;;;;;1.58;0.40;;;;;10.80;100650.00;;;;5007900;28;20674;-75
2022/12/08 04:13:43;;;;;;;0.65;0.40;;;;;10.90;100643.00;;;;5008575;28;20233;-76
2022/12/08 04:16:16;;;;;;;0.85;0.40;;;;;10.80;100646.00;;;;5008247;28;20201;-76
2022/12/08 04:18:43;;;;;;;0.43;0.35;;;;;10.90;100636.00;;;;5007880;28;20185;-75
2022/12/08 04:21:11;;;;;;;1.17;0.55;;;;;10.90;100630.00;;;;5008462;28;20193;-76
2022/12/08 04:23:38;;;;;;;0.35;0.35;;;;;10.90;100628.00;;;;5008466;28;20745;-75
2022/12/08 04:26:06;;;;;;;2.10;0.65;;;;;10.90;100618.00;;;;5007455;28;20243;-76
2022/12/08 04:28:34;;;;;;;0.85;0.68;;;;;10.90;100623.00;;;;5008200;28;20193;-76
2022/12/08 04:31:02;;;;;;;1.45;0.57;;;;;10.90;100616.00;;;;5021543;28;20204;-76
2022/12/08 04:33:30;;;;;;;1.23;0.73;;;;;10.90;100608.00;;;;5013608;28;20236;-76
2022/12/08 04:35:57;;;;;;;0.50;0.45;;;;;10.90;100610.00;;;;5011243;28;20231;-76
2022/12/08 04:38:24;;;;;;;0.70;0.50;;;;;10.90;100616.00;;;;5028378;28;20197;-76
2022/12/08 04:40:52;;;;;;;1.33;0.40;;;;;10.90;100618.00;;;;5026335;28;20208;-76
2022/12/08 04:43:19;;;;;;;0.70;0.35;;;;;10.90;100622.00;;;;5013432;28;20209;-76
2022/12/08 04:45:48;;;;;;;0.60;0.50;;;;;10.90;100628.00;;;;5020178;28;20746;-75
2022/12/08 04:48:15;;;;;;;0.70;0.50;;;;;10.90;100626.00;;;;5014129;28;20196;-75
2022/12/08 04:50:44;;;;;;;2.15;0.77;;;;;10.80;100623.00;;;;5007084;28;20774;-76
2022/12/08 04:53:13;;;;;;;1.00;0.25;;;;;10.80;100610.00;;;;5012281;28;20220;-76
2022/12/08 04:55:42;;;;;;;0.13;0.05;;;;;10.80;100620.00;;;;5009171;28;20589;-76
2022/12/08 04:58:13;;;;;;;0.10;0.00;;;;;10.70;100607.00;;;;5007876;28;20204;-76
2022/12/08 05:00:40;;;;;;;0.47;0.00;;;;;10.70;100613.00;;;;5009783;28;20197;-76
2022/12/08 05:03:09;;;;;;;0.20;0.10;;;;;10.60;100615.00;;;;5014519;28;20255;-76
2022/12/08 05:05:36;;;;;;;0.30;0.10;;;;;10.60;100618.00;;;;5021960;28;20204;-76
2022/12/08 05:08:05;;;;;;;0.73;0.00;;;;;10.60;100613.00;;;;5017280;28;20200;-76
2022/12/08 05:10:32;;;;;;;0.35;0.00;;;;;10.50;100616.00;;;;5009541;28;20200;-76
2022/12/08 05:13:00;;;;;;;0.00;0.00;;;;;10.60;100615.00;;;;5024718;28;20575;-76
2022/12/08 05:15:29;;;;;;;0.85;0.30;;;;;10.50;100612.00;;;;5022713;28;20205;-76
2022/12/08 05:17:56;;;;;;;0.20;0.10;;;;;10.50;100613.00;;;;5028852;28;20208;-76
2022/12/08 05:20:25;;;;;;;0.32;0.10;;;;;10.50;100608.00;;;;5010880;28;20201;-75
2022/12/08 05:22:52;;;;;;;0.10;0.00;;;;;10.50;100597.00;;;;5013966;28;20208;-76
2022/12/08 05:25:20;;;;;;;1.58;0.35;;;;;10.50;100606.00;;;;5015081;28;20205;-75
2022/12/08 05:27:47;;;;;;;0.00;0.00;;;;;10.50;100598.00;;;;5016111;28;20212;-75
2022/12/08 05:30:15;;;;;;;1.30;0.13;;;;;10.50;100597.00;;;;5017231;28;20207;-76
2022/12/08 05:32:42;;;;;;;0.82;0.10;;;;;10.50;100598.00;;;;5008127;28;20235;-75
2022/12/08 05:35:10;;;;;;;0.93;0.20;;;;;10.50;100607.00;;;;5016965;28;20236;-76
2022/12/08 05:37:38;;;;;;;0.22;0.00;;;;;10.50;100609.00;;;;5013024;28;20216;-76
2022/12/08 05:40:07;;;;;;;0.43;0.10;;;;;10.50;100611.00;;;;5011590;28;20200;-76
2022/12/08 05:42:34;;;;;;;1.15;0.10;;;;;10.50;100610.00;;;;5018024;28;20200;-75
2022/12/08 05:45:01;;;;;;;0.75;0.10;;;;;10.50;100602.00;;;;5025146;28;20196;-76
2022/12/08 05:47:29;;;;;;;0.00;0.00;;;;;10.50;100607.00;;;;5026091;28;20197;-76
2022/12/08 05:49:56;;;;;;;0.25;0.00;;;;;10.50;100611.00;;;;5027325;28;20204;-76
2022/12/08 05:52:24;;;;;;;0.10;0.00;;;;;10.50;100604.00;;;;5029660;28;20200;-75
2022/12/08 05:54:53;;;;;;;0.95;0.32;;;;;10.50;100605.00;;;;5022858;28;20212;-76
2022/12/08 05:57:20;;;;;;;1.38;0.30;;;;;10.50;100599.00;;;;5012900;28;20217;-75
2022/12/08 05:59:47;;;;;;;2.10;0.43;;;;;10.50;100602.00;;;;5011714;28;20207;-76
2022/12/08 06:02:15;;;;;;;0.60;0.20;;;;;10.40;100616.00;;;;5023543;28;20200;-75
2022/12/08 06:04:42;;;;;;;0.35;0.00;;;;;10.40;100610.00;;;;5019217;28;20207;-75
2022/12/08 06:07:10;;;;;;;0.45;0.17;;;;;10.40;100608.00;;;;5015469;28;20219;-76
2022/12/08 06:09:37;;;;;;;0.10;0.00;;;;;10.40;100609.00;;;;5029628;28;20197;-75
2022/12/08 06:12:06;;;;;;;0.28;0.20;;;;;10.40;100609.00;;;;5015336;28;20201;-76
2022/12/08 06:14:34;;;;;;;0.43;0.10;;;;;10.40;100614.00;;;;5014188;28;20224;-75
2022/12/08 06:17:02;;;;;;;0.55;0.10;;;;;10.40;100606.00;;;;5014985;28;20586;-76
2022/12/08 06:19:29;;;;;;;0.25;0.13;;;;;10.40;100603.00;;;;5013312;28;20201;-75
2022/12/08 06:21:57;;;;;;;0.75;0.17;;;;;10.40;100603.00;;;;5026909;28;20201;-76
2022/12/08 06:24:24;;;;;;;0.35;0.10;;;;;10.40;100604.00;;;;5011936;28;20205;-76
2022/12/08 06:26:51;;;;;;;0.68;0.22;;;;;10.40;100614.00;;;;5011529;28;20204;-76
2022/12/08 06:29:20;;;;;;;0.20;0.10;;;;;10.40;100606.00;;;;5013765;28;20223;-76
2022/12/08 06:31:47;;;;;;;0.47;0.20;;;;;10.40;100605.00;;;;5024739;28;20212;-75
2022/12/08 06:34:15;;;;;;;0.20;0.20;;;;;10.40;100609.00;;;;5013099;28;20213;-77
2022/12/08 06:36:42;;;;;;;1.23;0.25;;;;;10.40;100606.00;;;;5017578;28;20232;-76
2022/12/08 06:39:09;;;;;;;0.95;0.40;;;;;10.40;100604.00;;;;5016476;28;20204;-75
2022/12/08 06:42:42;;;;;;;0.30;0.20;;;;;10.40;100600.00;;;;5017546;28;20227;-76
2022/12/08 06:44:26;;;;;;;0.73;0.20;;;;;10.40;100609.00;;;;5020468;28;20288;-76
2022/12/08 06:46:54;;;;;;;4.80;0.47;;;;;10.40;100604.00;;;;5020606;28;20200;-77
2022/12/08 06:49:22;;;;;;;0.45;0.22;;;;;10.40;100609.00;;;;5015573;28;20203;-75
2022/12/08 06:51:49;;;;;;;0.50;0.17;;;;;10.40;100609.00;;;;5010674;28;20212;-76
2022/12/08 06:54:16;;;;;;;0.57;0.30;;;;;10.40;100611.00;;;;5010964;28;20233;-76
2022/12/08 06:56:44;;;;;;;0.30;0.20;;;;;10.40;100618.00;;;;5010870;28;20217;-76
2022/12/08 06:59:12;;;;;;;0.20;0.20;;;;;10.40;100620.00;;;;5017713;28;20196;-76
2022/12/08 07:01:40;;;;;;;0.52;0.20;;;;;10.30;100616.00;;;;5013329;28;20192;-75
2022/12/08 07:04:07;;;;;;;0.73;0.30;;;;;10.30;100617.00;;;;5028769;28;20212;-77
2022/12/08 07:06:35;;;;;;;0.60;0.40;;;;;10.30;100616.00;;;;5019866;28;20237;-76
2022/12/08 07:09:02;;;;;;;0.52;0.40;;;;;10.30;100617.00;;;;5013444;28;20208;-75
2022/12/08 07:11:30;;;;;;;0.80;0.45;;;;;10.30;100613.00;;;;5009082;28;20197;-76
2022/12/08 07:13:57;;;;;;;0.70;0.40;;;;;10.30;100606.00;;;;5009599;28;20228;-76
2022/12/08 07:16:25;;;;;;;0.45;0.30;;;;;10.30;100615.00;;;;5014753;28;20589;-76
2022/12/08 07:18:53;;;;;;;0.50;0.40;;;;;10.30;100604.00;;;;5011750;28;20204;-76
2022/12/08 07:21:21;;;;;;;0.40;0.20;;;;;10.30;100605.00;;;;5010310;28;20201;-76
2022/12/08 07:23:49;;;;;;;0.77;0.22;;;;;10.30;100610.00;;;;5015165;28;20687;-76
2022/12/08 07:26:17;;;;;;;0.70;0.30;;;;;10.20;100604.00;;;;5009274;28;20216;-75
2022/12/08 07:28:44;;;;;;;0.43;0.20;;;;;10.20;100596.00;;;;5017205;28;20192;-76
2022/12/08 07:31:18;;;;;;;0.40;0.30;;;;;10.20;100595.00;;;;5029688;28;20192;-75
2022/12/08 07:33:45;;;;;;;0.40;0.30;;;;;10.20;100595.00;;;;5029676;28;20228;-76
2022/12/08 07:36:14;;;;;;;0.50;0.20;;;;;10.20;100595.00;;;;5023285;28;20225;-75
2022/12/08 07:38:42;;;;;;;0.70;0.50;;;;;10.20;100586.00;;;;5010707;28;20223;-75
2022/12/08 07:41:13;;;;;;;0.52;0.20;;;;;10.10;100587.00;;;;5009149;28;20197;-76
2022/12/08 07:43:40;;;;;;;0.60;0.20;;;;;10.20;100594.00;;;;5009094;28;20543;-75
2022/12/08 07:46:07;;;;;;;0.43;0.10;;;;;10.20;100590.00;;;;5016435;28;20654;-75
2022/12/08 07:48:35;;;;;;;0.20;0.10;;;;;10.20;100594.00;;;;5021450;28;20200;-76
2022/12/08 07:51:03;;;;;;;0.40;0.20;;;;;10.20;100597.00;;;;5013051;28;20197;-75
2022/12/08 07:53:32;;;;;;;0.90;0.20;;;;;10.10;100589.00;;;;5018906;28;20224;-76
2022/12/08 07:55:59;;;;;;;0.60;0.30;;;;;10.10;100595.00;;;;5007598;28;20694;-75
2022/12/08 07:58:27;;;;;;;1.65;0.50;;;;;10.10;100602.00;;;;5009089;28;20594;-76
2022/12/08 08:00:54;;;;;;;0.10;0.05;;;;;10.10;100600.00;;;;5015827;28;20681;-75
2022/12/08 08:03:22;;;;;;;0.35;0.10;;;;;10.10;100588.00;;;;5024512;28;20689;-75
2022/12/08 08:05:49;;;;;;;0.20;0.10;;;;;10.10;100599.00;;;;5024103;28;20270;-76
2022/12/08 08:08:17;;;;;;;0.17;0.17;;;;;10.10;100600.00;;;;5018804;28;20204;-76
2022/12/08 08:10:46;;;;;;;0.30;0.15;;;;;10.00;100598.00;;;;5017469;28;20223;-76
2022/12/08 08:13:14;;;;;;;0.50;0.30;;;;;10.10;100601.00;;;;5017021;28;20203;-76
2022/12/08 08:15:41;;;;;;;0.30;0.20;;;;;10.10;100603.00;;;;5023697;28;20199;-76
2022/12/08 08:18:08;;;;;;;1.40;0.32;;;;;10.00;100614.00;;;;5008975;28;20205;-76
2022/12/08 08:20:35;;;;;;;0.45;0.15;;;;;10.00;100612.00;;;;5013988;28;20212;-76
2022/12/08 08:23:03;;;;;;;0.40;0.20;;;;;10.00;100604.00;;;;5008962;28;20197;-76
2022/12/08 08:25:30;;;;;;;0.10;0.08;;;;;10.00;100602.00;;;;5013930;28;20200;-76
2022/12/08 08:27:58;;;;;;;0.08;0.00;;;;;9.90;100611.00;;;;5027779;28;20200;-76
2022/12/08 08:30:26;;;;;;;0.90;0.10;;;;;9.90;100611.00;;;;5009695;28;20207;-76
2022/12/08 08:32:53;;;;;;;0.30;0.10;;;;;9.90;100614.00;;;;5015530;28;20212;-75
2022/12/08 08:35:20;;;;;;;0.20;0.10;;;;;9.90;100613.00;;;;5024222;28;20236;-76
2022/12/08 08:37:47;;;;;;;0.55;0.17;;;;;9.90;100612.00;;;;5008824;28;20200;-76
2022/12/08 08:40:15;;;;;;;0.00;0.00;;;;;9.90;100616.00;;;;5013004;28;20201;-76
2022/12/08 08:42:42;;;;;;;1.70;0.20;;;;;9.90;100615.00;;;;5008755;28;20197;-76
2022/12/08 08:45:12;;;;;;;0.30;0.10;;;;;9.80;100617.00;;;;5009557;28;20197;-76
2022/12/08 08:47:39;;;;;;;0.68;0.00;;;;;9.80;100625.00;;;;5009754;28;20212;-76
2022/12/08 08:50:07;;;;;;;0.03;0.00;;;;;9.80;100618.00;;;;5008412;28;20205;-75
2022/12/08 08:52:35;;;;;;;0.17;0.00;;;;;9.90;100615.00;;;;5014924;28;20573;-76
2022/12/08 08:55:02;;;;;;;0.15;0.10;;;;;9.90;100620.00;;;;5025194;28;20617;-76
2022/12/08 08:57:29;;;;;;;0.15;0.10;;;;;9.90;100621.00;;;;5023757;28;20581;-75
2022/12/08 08:59:56;;;;;;;0.20;0.15;;;;;9.90;100624.00;;;;5008945;28;20208;-76
2022/12/08 09:02:25;;;;;;;0.20;0.10;;;;;9.90;100638.00;;;;5008629;28;20661;-76
2022/12/08 09:04:52;;;;;;;0.20;0.00;;;;;9.90;100629.00;;;;5008221;28;20675;-75
2022/12/08 09:07:20;;;;;;;0.10;0.10;;;;;9.90;100620.00;;;;5014960;28;20225;-76
2022/12/08 09:09:47;;;;;;;0.15;0.10;;;;;9.90;100622.00;;;;5028140;28;20188;-76
2022/12/08 09:12:14;;;;;;;0.30;0.20;;;;;9.90;100615.00;;;;5026504;28;20200;-75
2022/12/08 09:14:42;;;;;;;0.10;0.03;;;;;10.00;100621.00;;;;5017332;28;20224;-75
2022/12/08 09:17:09;;;;;;;0.82;0.10;;;;;10.00;100622.00;;;;5019967;28;20196;-76
2022/12/08 09:19:38;;;;;;;0.03;0.00;;;;;10.00;100626.00;;;;5009946;28;20223;-76
2022/12/08 09:22:05;;;;;;;0.35;0.15;;;;;10.00;100624.00;;;;5019163;28;20211;-76
2022/12/08 09:24:32;;;;;;;0.32;0.10;;;;;10.10;100623.00;;;;5028112;28;20663;-76
2022/12/08 09:27:00;;;;;;;0.40;0.20;;;;;10.10;100627.00;;;;5025291;28;20203;-76
2022/12/08 09:29:27;;;;;;;1.17;0.50;;;;;10.10;100628.00;;;;5008667;28;20219;-76
2022/12/08 09:31:55;;;;;;;0.85;0.30;;;;;10.10;100630.00;;;;5019365;28;20199;-76
2022/12/08 09:34:22;;;;;;;0.35;0.13;;;;;10.20;100633.00;;;;5020073;28;20704;-76
2022/12/08 09:36:51;;;;;;;0.30;0.20;;;;;10.20;100629.00;;;;5021762;28;20351;-76
2022/12/08 09:39:18;;;;;;;0.32;0.20;;;;;10.20;100632.00;;;;5014931;28;20236;-76
2022/12/08 09:41:49;;;;;;;0.30;0.20;;;;;10.20;100625.00;;;;5012178;28;20221;-76
2022/12/08 09:44:48;;;;;;;0.20;0.20;;;;;10.20;100631.00;;;;5014941;28;20224;-76
2022/12/08 09:47:21;;;;;;;0.32;0.10;;;;;10.20;100625.00;;;;5011126;28;20200;-76
2022/12/08 09:49:54;;;;;;;0.35;0.10;;;;;10.30;100628.00;;;;5010962;28;20205;-76
2022/12/08 09:52:27;;;;;;;0.20;0.10;;;;;10.30;100625.00;;;;5011925;28;20220;-75
2022/12/08 09:54:58;;;;;;;0.28;0.10;;;;;10.30;100630.00;;;;5013355;28;20221;-75
2022/12/08 09:57:26;;;;;;;0.30;0.20;;;;;10.30;100616.00;;;;5016051;28;20205;-75
2022/12/08 09:59:57;;;;;;;0.25;0.20;;;;;10.30;100623.00;;;;5020144;28;20598;-75
2022/12/08 10:02:28;;;;;;;0.32;0.20;;;;;10.40;100610.00;;;;5010176;28;20197;-75
2022/12/08 10:04:56;;;;;;;0.47;0.40;;;;;10.40;100615.00;;;;5010336;28;20201;-76
2022/12/08 10:07:37;;;;;;;0.50;0.20;;;;;10.40;100611.00;;;;5008383;28;20220;-76
2022/12/08 10:10:11;;;;;;;0.47;0.10;;;;;10.40;100612.00;;;;5010865;28;20255;-76
2022/12/08 10:12:46;;;;;;;0.60;0.20;;;;;10.40;100613.00;;;;5008651;28;20192;-76
2022/12/08 10:15:31;;;;;;;0.65;0.30;;;;;10.40;100609.00;;;;5014332;28;20228;-76
2022/12/08 10:18:02;;;;;;;0.68;0.28;;;;;10.50;100602.00;;;;5024656;28;20215;-77
2022/12/08 10:20:37;;;;;;;0.30;0.20;;;;;10.40;100605.00;;;;5023449;28;20197;-76
2022/12/08 10:23:13;;;;;;;0.30;0.20;;;;;10.50;100598.00;;;;5017873;28;20249;-77
2022/12/08 10:25:45;;;;;;;0.43;0.30;;;;;10.50;100601.00;;;;5010526;28;20208;-76
2022/12/08 10:28:13;;;;;;;0.95;0.40;;;;;10.60;100598.00;;;;5009652;28;20548;-76
2022/12/08 10:30:40;;;;;;;0.40;0.22;;;;;10.60;100602.00;;;;5011922;28;20228;-76
2022/12/08 10:33:14;;;;;;;0.93;0.30;;;;;10.60;100601.00;;;;5028536;28;20204;-76
2022/12/08 10:35:46;;;;;;;0.10;0.10;;;;;10.60;100599.00;;;;5028358;28;20234;-76
2022/12/08 10:38:25;;;;;;;0.55;0.20;;;;;10.60;100592.00;;;;5015973;28;20197;-76
2022/12/08 10:40:58;;;;;;;0.35;0.22;;;;;10.70;100583.00;;;;5015759;28;20206;-76
2022/12/08 10:43:27;;;;;;;0.43;0.20;;;;;10.70;100583.00;;;;5028211;28;20209;-76
2022/12/08 10:45:55;;;;;;;0.10;0.10;;;;;10.70;100587.00;;;;5027140;28;20212;-76
2022/12/08 10:48:25;;;;;;;0.20;0.10;;;;;10.70;100593.00;;;;5010936;28;20205;-76
2022/12/08 10:50:56;;;;;;;0.20;0.10;;;;;10.70;100588.00;;;;5011126;28;20571;-76
2022/12/08 10:53:26;;;;;;;0.00;0.00;;;;;10.70;100586.00;;;;5028463;28;20240;-75
2022/12/08 10:56:06;;;;;;;0.10;0.05;;;;;10.70;100591.00;;;;5030799;28;20231;-76
2022/12/08 10:58:35;;;;;;;0.40;0.20;;;;;10.80;100583.00;;;;5028793;28;20662;-76
2022/12/08 11:01:06;;;;;;;0.30;0.22;;;;;10.70;100593.00;;;;5014440;28;20211;-76
2022/12/08 11:03:36;;;;;;;0.40;0.20;;;;;10.70;100594.00;;;;5020459;28;20212;-76
2022/12/08 11:06:14;;;;;;;5.05;0.73;;;;;10.70;100595.00;;;;5019596;28;20225;-77
2022/12/08 11:08:52;;;;;;;1.92;0.38;;;;;10.70;100597.00;;;;5021196;28;20678;-76
2022/12/08 11:11:20;;;;;;;0.63;0.38;;;;;10.70;100599.00;;;;5013628;28;20205;-76
2022/12/08 11:13:51;;;;;;;0.17;0.17;;;;;10.70;100598.00;;;;5015380;28;20212;-76
2022/12/08 11:16:20;;;;;;;0.40;0.20;;;;;10.70;100603.00;;;;5012139;28;20568;-76
2022/12/08 11:18:55;;;;;;;0.28;0.28;;;;;10.60;100599.00;;;;5017182;28;20193;-76
2022/12/08 11:21:34;;;;;;;0.30;0.20;;;;;10.60;100598.00;;;;5009316;28;21592;-76
2022/12/08 11:24:20;;;;;;;0.43;0.30;;;;;10.50;100597.00;;;;5009685;28;20205;-76
2022/12/08 11:26:52;;;;;;;0.32;0.20;;;;;10.60;100593.00;;;;5020754;28;20648;-76
2022/12/08 11:29:20;;;;;;;0.77;0.50;;;;;10.60;100602.00;;;;5009926;28;20204;-76
2022/12/08 11:31:52;;;;;;;0.50;0.35;;;;;10.60;100598.00;;;;5015050;28;20677;-76
2022/12/08 11:34:24;;;;;;;0.45;0.22;;;;;10.60;100594.00;;;;5024219;28;20225;-76
2022/12/08 11:36:54;;;;;;;0.45;0.30;;;;;10.70;100589.00;;;;5012464;28;20232;-77
2022/12/08 11:39:25;;;;;;;0.10;0.10;;;;;10.70;100586.00;;;;5018715;28;20197;-76
2022/12/08 11:41:54;;;;;;;1.23;0.30;;;;;10.70;100582.00;;;;5008277;28;20679;-76
2022/12/08 11:44:28;;;;;;;0.90;0.20;;;;;10.70;100571.00;;;;5016419;28;20188;-77
2022/12/08 11:46:59;;;;;;;0.10;0.00;;;;;10.70;100565.00;;;;5017746;28;20204;-77
2022/12/08 11:49:33;;;;;;;0.30;0.15;;;;;10.60;100560.00;;;;5010147;28;20220;-76
2022/12/08 11:52:10;;;;;;;1.73;0.32;;;;;10.70;100559.00;;;;5013208;28;20667;-77
2022/12/08 11:54:47;;;;;;;0.47;0.22;;;;;10.60;100558.00;;;;5010355;28;20651;-77
2022/12/08 11:57:19;;;;;;;0.70;0.20;;;;;10.70;100554.00;;;;5010467;28;20212;-77
2022/12/08 11:59:50;;;;;;;0.60;0.10;;;;;10.70;100552.00;;;;5012014;28;20247;-76
2022/12/08 12:02:20;;;;;;;0.40;0.20;;;;;10.80;100545.00;;;;5014527;28;20291;-78
2022/12/08 12:04:54;;;;;;;0.30;0.30;;;;;10.70;100539.00;;;;5017659;28;20204;-79
2022/12/08 12:07:54;;;;;;;2.17;0.40;;;;;10.70;100523.00;;;;5019023;28;20216;-78
2022/12/08 12:10:37;;;;;;;0.50;0.40;;;;;10.70;100517.00;;;;5011482;28;20197;-78
2022/12/08 12:13:31;;;;;;;1.10;0.80;;;;;10.70;100510.00;;;;5006479;28;20680;-76
2022/12/08 12:16:28;;;;;;;0.80;0.77;;;;;10.70;100509.00;;;;5011231;28;20706;-77
2022/12/08 12:18:58;;;;;;;1.00;0.90;;;;;10.80;100510.00;;;;5009438;28;20205;-77
2022/12/08 12:21:31;;;;;;;1.73;1.10;;;;;10.80;100512.00;;;;5015432;28;20195;-77
2022/12/08 12:24:03;;;;;;;1.77;0.93;;;;;10.90;100510.00;;;;5008727;28;20654;-77
2022/12/08 12:26:36;;;;;;;0.80;0.80;;;;;10.90;100502.00;;;;5008472;28;20215;-77
2022/12/08 12:29:07;;;;;;;1.08;0.98;;;;;10.90;100499.00;;;;5008819;28;20193;-76